Abernant, United Kingdom
Current Conditions -  °F | °C
As of 8:50 AM on Saturday 01 Nov 2014 (Local Time) from EGOP Reporting Station
Scattered Clouds Scattered Clouds  
Wind Chill: 57°   Ceiling: Unl
Heat Index: 57°   Visibility: 6mi
Dew Point: 50°   Wind: 25mph
Humidity: 77%   Direction: 220°SW
Pressure: 29.91"   Gusts: NA
Location:  51.82°N, 4.5°W
Report Text: EGOP 010850Z AUTO 22022KT 9999 // SCT026/// 14/10 Q1013
Loading
Personal Weather Stations






























Interactive Weather Map
Tropical Storm Tracking
New forecast layout! Learn more

10-Day Weather Forecast

Advertisements
Track Severe Weather on mobile